createdAt,value
2023-04-18T00:01:59.161Z,45.50
2023-04-18T00:04:27.749Z,43.45
2023-04-18T00:06:56.309Z,41.75
2023-04-18T00:09:25.658Z,41.13
2023-04-18T00:11:54.140Z,41.45
2023-04-18T00:14:23.081Z,41.55
2023-04-18T00:16:54.183Z,41.50
2023-04-18T00:19:24.034Z,41.75
2023-04-18T00:21:53.091Z,41.47
2023-04-18T00:24:23.750Z,41.45
2023-04-18T00:26:52.126Z,44.22
2023-04-18T00:29:20.477Z,40.20
2023-04-18T00:31:48.826Z,50.33
2023-04-18T00:34:17.313Z,40.65
2023-04-18T00:36:48.331Z,39.90
2023-04-18T00:39:16.725Z,43.22
2023-04-18T00:41:45.110Z,44.28
2023-04-18T00:44:13.681Z,36.83
2023-04-18T00:46:44.809Z,37.72
2023-04-18T00:49:13.441Z,40.58
2023-04-18T00:51:42.204Z,37.63
2023-04-18T00:54:13.563Z,39.35
2023-04-18T00:56:42.343Z,41.58
2023-04-18T00:59:11.921Z,37.08
2023-04-18T01:01:41.639Z,35.75
2023-04-18T01:04:10.258Z,38.30
2023-04-18T01:06:39.031Z,39.72
2023-04-18T01:09:07.472Z,35.78
2023-04-18T01:11:37.203Z,34.97
2023-04-18T01:14:06.237Z,42.13
2023-04-18T01:16:38.848Z,40.20
2023-04-18T01:19:07.385Z,35.83
2023-04-18T01:21:37.110Z,37.33
2023-04-18T01:24:11.903Z,37.70
2023-04-18T01:26:44.725Z,36.33
2023-04-18T01:29:13.455Z,41.38
2023-04-18T01:31:44.383Z,40.85
2023-04-18T01:34:13.050Z,37.67
2023-04-18T01:36:43.308Z,39.67
2023-04-18T01:39:14.917Z,36.80
2023-04-18T01:41:43.472Z,39.20
2023-04-18T01:44:12.093Z,38.45
2023-04-18T01:46:40.912Z,37.20
2023-04-18T01:49:10.351Z,39.03
2023-04-18T01:51:39.756Z,40.63
2023-04-18T01:54:08.292Z,38.25
2023-04-18T01:56:38.105Z,34.40
2023-04-18T01:59:06.613Z,38.53
2023-04-18T02:01:35.064Z,37.65
2023-04-18T02:04:03.449Z,38.25
2023-04-18T02:06:31.878Z,37.10
2023-04-18T02:09:01.472Z,40.42
2023-04-18T02:11:29.878Z,44.00
2023-04-18T02:14:00.231Z,40.20
2023-04-18T02:16:28.722Z,38.13
2023-04-18T02:18:57.158Z,39.05
2023-04-18T02:21:25.575Z,38.00
2023-04-18T02:23:54.287Z,38.85
2023-04-18T02:26:25.229Z,37.63
2023-04-18T02:28:53.620Z,39.35
2023-04-18T02:31:24.799Z,38.83
2023-04-18T02:33:53.581Z,38.88
2023-04-18T02:36:23.466Z,41.08
2023-04-18T02:38:51.868Z,33.35
2023-04-18T02:41:22.319Z,42.10
2023-04-18T02:43:50.803Z,36.22
2023-04-18T02:46:21.240Z,32.97
2023-04-18T02:48:52.089Z,32.08
2023-04-18T02:51:24.623Z,33.97
2023-04-18T02:53:55.008Z,35.55
2023-04-18T02:56:24.102Z,36.40
2023-04-18T02:59:10.985Z,36.83
2023-04-18T03:02:02.501Z,33.17
2023-04-18T03:04:32.934Z,32.47
2023-04-18T03:07:03.769Z,33.88
2023-04-18T03:09:36.747Z,35.58
2023-04-18T03:12:11.272Z,30.15
2023-04-18T03:14:40.695Z,35.70
2023-04-18T03:17:09.222Z,31.65
2023-04-18T03:19:43.073Z,36.83
2023-04-18T03:22:14.924Z,31.40
2023-04-18T03:24:50.321Z,33.78
2023-04-18T03:27:20.180Z,36.22
2023-04-18T03:29:49.380Z,32.13
2023-04-18T03:32:18.317Z,32.78
2023-04-18T03:34:48.222Z,31.60
2023-04-18T03:37:16.689Z,30.77
2023-04-18T03:39:50.544Z,33.63
2023-04-18T03:42:19.237Z,30.70
2023-04-18T03:44:47.596Z,32.80
2023-04-18T03:47:16.877Z,30.73
2023-04-18T03:49:50.421Z,31.45
2023-04-18T03:52:20.159Z,33.78
2023-04-18T03:54:48.878Z,36.40
2023-04-18T03:57:19.043Z,35.60
2023-04-18T03:59:48.000Z,34.47
2023-04-18T04:02:18.903Z,33.58
2023-04-18T04:04:47.690Z,36.63
2023-04-18T04:07:19.726Z,34.95
2023-04-18T04:09:49.231Z,36.00
2023-04-18T04:12:17.982Z,38.58
2023-04-18T04:14:46.375Z,34.60
2023-04-18T04:17:14.839Z,37.25
2023-04-18T04:19:43.461Z,35.60
2023-04-18T04:22:16.520Z,36.20
2023-04-18T04:24:49.153Z,37.03
2023-04-18T04:27:23.218Z,33.55
2023-04-18T04:29:52.168Z,35.38
2023-04-18T04:32:21.616Z,35.38
2023-04-18T04:34:50.496Z,37.78
2023-04-18T04:37:19.107Z,35.63
2023-04-18T04:40:01.571Z,37.17
2023-04-18T04:42:42.232Z,33.75
2023-04-18T04:45:17.369Z,38.10
2023-04-18T04:47:47.211Z,36.95
2023-04-18T04:50:16.183Z,32.47
2023-04-18T04:52:44.909Z,36.08
2023-04-18T04:55:14.778Z,29.58
2023-04-18T04:57:45.754Z,25.87
2023-04-18T05:00:43.690Z,29.48
2023-04-18T05:03:12.445Z,28.55
2023-04-18T05:05:43.784Z,29.13
2023-04-18T05:08:12.241Z,35.17
2023-04-18T05:10:43.119Z,28.05
2023-04-18T05:13:11.614Z,32.13
2023-04-18T05:15:40.830Z,27.50
2023-04-18T05:18:09.484Z,29.40
2023-04-18T05:20:37.934Z,31.95
2023-04-18T05:23:06.403Z,27.35
2023-04-18T05:25:34.812Z,26.58
2023-04-18T05:28:05.317Z,28.17
2023-04-18T05:30:33.728Z,25.63
2023-04-18T05:33:02.185Z,28.42
2023-04-18T05:35:30.645Z,31.05
2023-04-18T05:37:59.459Z,25.48
2023-04-18T05:40:28.333Z,31.45
2023-04-18T05:42:56.734Z,28.30
2023-04-18T05:45:26.855Z,30.67
2023-04-18T05:47:55.247Z,33.92
2023-04-18T05:50:23.801Z,32.63
2023-04-18T05:52:52.356Z,38.20
2023-04-18T05:55:20.775Z,34.00
2023-04-18T05:57:49.222Z,32.85
2023-04-18T06:00:18.611Z,31.52
2023-04-18T06:02:49.625Z,31.23
2023-04-18T06:05:18.214Z,33.00
2023-04-18T06:07:48.073Z,37.00
2023-04-18T06:10:17.116Z,36.90
2023-04-18T06:12:45.710Z,34.35
2023-04-18T06:15:14.300Z,30.77
2023-04-18T06:17:42.831Z,33.60
2023-04-18T06:20:13.056Z,32.35
2023-04-18T06:22:41.460Z,31.25
2023-04-18T06:25:10.609Z,30.02
2023-04-18T06:27:39.056Z,33.80
2023-04-18T06:30:08.259Z,30.52
2023-04-18T06:32:36.791Z,37.90
2023-04-18T06:35:05.563Z,31.40
2023-04-18T06:37:35.399Z,29.35
2023-04-18T06:40:03.907Z,32.42
2023-04-18T06:42:32.266Z,35.10
2023-04-18T06:45:03.617Z,33.40
2023-04-18T06:47:32.290Z,31.77
2023-04-18T06:50:00.711Z,31.10
2023-04-18T06:52:29.149Z,29.52
2023-04-18T06:54:58.973Z,31.08
2023-04-18T06:57:27.381Z,27.63
2023-04-18T06:59:55.790Z,31.40
2023-04-18T07:02:24.292Z,29.95
2023-04-18T07:04:55.203Z,30.50
2023-04-18T07:07:23.628Z,29.33
2023-04-18T07:09:52.808Z,29.40
2023-04-18T07:12:22.727Z,28.88
2023-04-18T07:14:51.218Z,29.30
2023-04-18T07:17:19.753Z,27.50
2023-04-18T07:19:48.371Z,31.02
2023-04-18T07:22:17.008Z,26.27
2023-04-18T07:24:45.469Z,28.30
2023-04-18T07:27:13.921Z,23.50
2023-04-18T07:29:43.802Z,25.05
2023-04-18T07:32:12.529Z,28.00
2023-04-18T07:34:41.399Z,21.70
2023-04-18T07:37:09.794Z,28.88
2023-04-18T07:39:40.555Z,23.70
2023-04-18T07:42:09.911Z,21.35
2023-04-18T07:44:38.286Z,25.55
2023-04-18T07:47:10.294Z,29.08
2023-04-18T07:49:38.885Z,24.08
2023-04-18T07:52:07.288Z,23.17
2023-04-18T07:54:35.669Z,34.50
2023-04-18T07:57:04.066Z,27.67
2023-04-18T07:59:32.933Z,32.28
2023-04-18T08:02:01.408Z,27.65
2023-04-18T08:04:31.558Z,28.33
2023-04-18T08:07:00.091Z,25.58
2023-04-18T08:09:28.639Z,32.60
2023-04-18T08:11:57.936Z,31.48
2023-04-18T08:14:26.764Z,25.85
2023-04-18T08:16:55.264Z,26.52
2023-04-18T08:19:24.190Z,26.85
2023-04-18T08:21:54.010Z,28.83
2023-04-18T08:24:22.407Z,33.35
2023-04-18T08:26:50.808Z,27.42
2023-04-18T08:29:19.215Z,38.38
2023-04-18T08:31:47.753Z,33.40
2023-04-18T08:34:16.230Z,30.13
2023-04-18T08:36:44.729Z,35.50
2023-04-18T08:39:15.858Z,28.13
2023-04-18T08:41:45.061Z,27.20
2023-04-18T08:44:13.715Z,25.90
2023-04-18T08:46:42.293Z,30.52
2023-04-18T08:49:11.966Z,28.58
2023-04-18T08:51:41.664Z,31.73
2023-04-18T08:54:10.407Z,51.72
2023-04-18T08:56:42.849Z,34.17
2023-04-18T08:59:11.603Z,27.40
2023-04-18T09:01:56.281Z,26.40
2023-04-18T09:04:35.412Z,27.52
2023-04-18T09:07:04.124Z,26.95
2023-04-18T09:09:42.556Z,33.33
2023-04-18T09:12:14.432Z,23.73
2023-04-18T09:14:47.150Z,25.83
2023-04-18T09:17:18.438Z,22.52
2023-04-18T09:19:48.789Z,25.58
2023-04-18T09:22:17.348Z,26.63
2023-04-18T09:24:55.346Z,25.65
2023-04-18T09:27:25.538Z,23.83
2023-04-18T09:29:57.378Z,25.42
2023-04-18T09:32:29.134Z,25.92
2023-04-18T09:34:59.787Z,24.08
2023-04-18T09:37:29.385Z,25.80
2023-04-18T09:39:57.806Z,23.70
2023-04-18T09:42:37.219Z,26.75
2023-04-18T09:45:06.633Z,26.13
2023-04-18T09:47:36.574Z,21.52
2023-04-18T09:50:05.627Z,25.38
2023-04-18T09:52:36.139Z,22.75
2023-04-18T09:55:06.064Z,21.55
2023-04-18T09:57:36.935Z,22.10
2023-04-18T10:00:10.693Z,23.45
2023-04-18T10:02:46.929Z,25.30
2023-04-18T10:05:17.619Z,21.60
2023-04-18T10:07:48.287Z,28.70
2023-04-18T10:10:17.039Z,26.33
2023-04-18T10:12:48.882Z,24.80
2023-04-18T10:15:20.355Z,22.95
2023-04-18T10:18:03.733Z,27.10
2023-04-18T10:20:35.354Z,27.90
2023-04-18T10:23:35.645Z,21.85
2023-04-18T10:26:04.764Z,24.42
2023-04-18T10:28:48.013Z,29.30
2023-04-18T10:31:18.187Z,19.90
2023-04-18T10:34:00.743Z,24.05
2023-04-18T10:36:33.096Z,25.77
2023-04-18T10:39:03.169Z,22.02
2023-04-18T10:41:32.473Z,24.35
2023-04-18T10:44:21.823Z,23.58
2023-04-18T10:47:21.108Z,24.65
2023-04-18T10:50:06.325Z,23.17
2023-04-18T10:52:35.912Z,26.77
2023-04-18T10:55:12.001Z,43.15
2023-04-18T10:57:44.029Z,23.33
2023-04-18T11:00:13.927Z,23.10
2023-04-18T11:02:42.862Z,23.13
2023-04-18T11:05:12.844Z,25.83
2023-04-18T11:07:44.909Z,29.30
2023-04-18T11:10:14.260Z,30.10
2023-04-18T11:12:43.182Z,33.15
2023-04-18T11:15:12.403Z,29.63
2023-04-18T11:17:41.179Z,38.40
2023-04-18T11:20:11.155Z,30.17
2023-04-18T11:22:47.996Z,24.13
2023-04-18T11:25:16.439Z,23.50
2023-04-18T11:27:45.681Z,27.00
2023-04-18T11:30:14.897Z,24.83
2023-04-18T11:32:43.409Z,28.85
2023-04-18T11:35:15.557Z,24.60
2023-04-18T11:37:45.414Z,27.23
2023-04-18T11:40:15.592Z,27.33
2023-04-18T11:42:44.655Z,24.40
2023-04-18T11:45:14.128Z,23.98
2023-04-18T11:47:43.264Z,31.73
2023-04-18T11:50:14.393Z,24.67
2023-04-18T11:52:43.557Z,28.73
2023-04-18T11:55:13.563Z,22.48
2023-04-18T11:57:43.398Z,25.50
2023-04-18T12:00:13.401Z,49.05
2023-04-18T12:02:42.806Z,27.60
2023-04-18T12:05:12.001Z,29.60
2023-04-18T12:07:41.763Z,48.65
2023-04-18T12:10:11.239Z,25.95
2023-04-18T12:12:39.798Z,23.13
2023-04-18T12:15:11.055Z,25.00
2023-04-18T12:17:39.532Z,25.13
2023-04-18T12:20:09.900Z,28.00
2023-04-18T12:22:39.958Z,26.50
2023-04-18T12:25:20.002Z,24.60
2023-04-18T12:27:49.153Z,25.00
2023-04-18T12:30:21.282Z,27.02
2023-04-18T12:32:50.595Z,47.90
2023-04-18T12:35:19.449Z,23.65
2023-04-18T12:37:48.160Z,28.63
2023-04-18T12:40:18.831Z,23.75
2023-04-18T12:42:47.992Z,25.65
2023-04-18T12:45:17.262Z,26.95
2023-04-18T12:47:48.267Z,82.57
2023-04-18T12:50:18.119Z,61.78
2023-04-18T12:52:47.096Z,35.50
2023-04-18T12:55:15.816Z,37.20
2023-04-18T12:57:44.882Z,39.25
2023-04-18T13:00:14.180Z,31.88
2023-04-18T13:02:44.123Z,30.48
2023-04-18T13:05:14.603Z,23.55
2023-04-18T13:07:43.707Z,47.92
2023-04-18T13:10:12.800Z,28.77
2023-04-18T13:12:41.572Z,42.15
2023-04-18T13:15:10.508Z,37.47
2023-04-18T13:17:39.293Z,32.90
2023-04-18T13:20:10.457Z,30.70
2023-04-18T13:22:40.521Z,44.90
2023-04-18T13:25:10.438Z,30.35
2023-04-18T13:27:41.427Z,26.73
2023-04-18T13:30:11.675Z,24.77
2023-04-18T13:32:41.479Z,28.58
2023-04-18T13:35:11.919Z,25.52
2023-04-18T13:37:42.133Z,22.40
2023-04-18T13:40:11.069Z,25.55
2023-04-18T13:42:40.372Z,27.27
2023-04-18T13:45:09.234Z,29.60
2023-04-18T13:47:37.840Z,25.50
2023-04-18T13:50:06.705Z,22.85
2023-04-18T13:52:37.463Z,22.17
2023-04-18T13:55:08.180Z,24.40
2023-04-18T13:57:37.340Z,23.85
2023-04-18T14:00:06.713Z,24.67
2023-04-18T14:02:40.455Z,20.20
2023-04-18T14:05:09.577Z,23.50
2023-04-18T14:07:38.876Z,24.90
2023-04-18T14:10:09.407Z,23.00
2023-04-18T14:12:38.114Z,22.52
2023-04-18T14:15:07.173Z,24.85
2023-04-18T14:17:35.906Z,21.35
2023-04-18T14:20:04.936Z,20.35
2023-04-18T14:22:33.517Z,21.77
2023-04-18T14:25:02.047Z,34.40
2023-04-18T14:27:32.892Z,21.92
2023-04-18T14:30:01.468Z,25.13
2023-04-18T14:32:30.091Z,22.98
2023-04-18T14:34:59.064Z,24.38
2023-04-18T14:37:28.026Z,19.20
2023-04-18T14:39:56.879Z,20.30
2023-04-18T14:42:25.389Z,20.73
2023-04-18T14:44:55.226Z,20.92
2023-04-18T14:47:24.400Z,19.02
2023-04-18T14:49:53.070Z,22.38
2023-04-18T14:52:21.509Z,19.70
2023-04-18T14:54:49.930Z,22.42
2023-04-18T14:57:18.847Z,24.27
2023-04-18T14:59:47.306Z,22.27
2023-04-18T15:02:17.352Z,19.67
2023-04-18T15:04:46.061Z,19.30
2023-04-18T15:07:15.058Z,20.50
2023-04-18T15:09:43.481Z,20.95
2023-04-18T15:12:11.971Z,18.70
2023-04-18T15:14:40.679Z,20.70
2023-04-18T15:17:09.108Z,19.23
2023-04-18T15:19:38.890Z,21.85
2023-04-18T15:22:07.666Z,17.30
2023-04-18T15:24:36.340Z,17.08
2023-04-18T15:27:04.879Z,17.95
2023-04-18T15:29:33.446Z,17.17
2023-04-18T15:32:02.038Z,14.80
2023-04-18T15:34:32.884Z,19.17
2023-04-18T15:37:02.789Z,15.48
2023-04-18T15:39:31.283Z,17.80
2023-04-18T15:42:00.180Z,13.23
2023-04-18T15:44:30.610Z,68.80
2023-04-18T15:47:01.120Z,23.27
2023-04-18T15:49:30.131Z,18.98
2023-04-18T15:51:58.634Z,15.73
2023-04-18T15:54:28.554Z,15.65
2023-04-18T15:56:58.082Z,14.52
2023-04-18T15:59:26.536Z,13.20
2023-04-18T16:01:57.076Z,9.95
2023-04-18T16:04:26.108Z,12.13
2023-04-18T16:06:56.893Z,12.52
2023-04-18T16:09:25.720Z,12.00
2023-04-18T16:11:56.126Z,12.38
2023-04-18T16:14:24.833Z,10.05
2023-04-18T16:16:54.991Z,9.88
2023-04-18T16:19:23.574Z,12.98
2023-04-18T16:21:52.002Z,13.90
2023-04-18T16:24:20.510Z,12.48
2023-04-18T16:26:49.479Z,11.93
2023-04-18T16:29:19.486Z,10.05
2023-04-18T16:31:48.617Z,11.43
2023-04-18T16:34:17.169Z,14.07
2023-04-18T16:36:46.189Z,10.60
2023-04-18T16:39:15.839Z,8.93
2023-04-18T16:41:44.405Z,7.07
2023-04-18T16:44:13.352Z,12.38
2023-04-18T16:46:43.680Z,11.02
2023-04-18T16:49:12.184Z,10.55
2023-04-18T16:51:43.416Z,8.05
2023-04-18T16:54:12.008Z,14.65
2023-04-18T16:56:41.374Z,13.35
2023-04-18T16:59:10.793Z,11.35
2023-04-18T17:01:39.353Z,11.93
2023-04-18T17:04:09.526Z,13.65
2023-04-18T17:06:38.312Z,9.65
2023-04-18T17:09:07.144Z,16.77
2023-04-18T17:11:39.606Z,11.73
2023-04-18T17:14:09.290Z,8.77
2023-04-18T17:16:39.224Z,11.68
2023-04-18T17:19:09.987Z,12.60
2023-04-18T17:21:38.839Z,11.90
2023-04-18T17:24:07.664Z,9.73
2023-04-18T17:26:36.974Z,12.57
2023-04-18T17:29:05.776Z,12.45
2023-04-18T17:31:34.455Z,18.23
2023-04-18T17:34:03.852Z,14.25
2023-04-18T17:36:33.598Z,12.75
2023-04-18T17:39:06.295Z,11.40
2023-04-18T17:41:37.693Z,11.55
2023-04-18T17:44:07.713Z,10.30
2023-04-18T17:46:36.561Z,12.80
2023-04-18T17:49:08.201Z,9.57
2023-04-18T17:51:38.172Z,13.30
2023-04-18T17:54:08.067Z,12.30
2023-04-18T17:56:36.598Z,14.88
2023-04-18T17:59:05.768Z,10.75
2023-04-18T18:01:34.761Z,14.55
2023-04-18T18:04:03.410Z,11.50
2023-04-18T18:06:32.221Z,12.18
2023-04-18T18:09:03.001Z,10.55
2023-04-18T18:11:31.480Z,15.15
2023-04-18T18:14:00.563Z,21.20
2023-04-18T18:16:29.158Z,11.07
2023-04-18T18:18:58.015Z,11.50
2023-04-18T18:21:27.296Z,20.80
2023-04-18T18:23:55.749Z,20.42
2023-04-18T18:26:26.474Z,13.82
2023-04-18T18:28:55.224Z,15.73
2023-04-18T18:31:24.936Z,11.63
2023-04-18T18:33:53.667Z,27.73
2023-04-18T18:36:22.048Z,10.18
2023-04-18T18:38:50.491Z,12.45
2023-04-18T18:41:22.526Z,11.45
2023-04-18T18:43:52.727Z,14.23
2023-04-18T18:46:21.471Z,15.05
2023-04-18T18:48:51.873Z,17.80
2023-04-18T18:51:20.722Z,10.50
2023-04-18T18:53:50.236Z,14.45
2023-04-18T18:56:19.323Z,12.77
2023-04-18T18:58:47.984Z,13.32
2023-04-18T19:01:18.448Z,12.30
2023-04-18T19:03:47.311Z,15.57
2023-04-18T19:06:16.112Z,12.43
2023-04-18T19:08:44.943Z,12.32
2023-04-18T19:11:13.857Z,15.35
2023-04-18T19:13:43.771Z,11.95
2023-04-18T19:16:12.524Z,13.10
2023-04-18T19:18:46.920Z,13.93
2023-04-18T19:21:15.909Z,13.32
2023-04-18T19:23:44.742Z,11.80
2023-04-18T19:26:13.520Z,14.35
2023-04-18T19:28:42.488Z,16.98
2023-04-18T19:31:11.033Z,17.25
2023-04-18T19:33:39.526Z,11.88
2023-04-18T19:36:09.478Z,21.98
2023-04-18T19:38:37.929Z,12.43
2023-04-18T19:41:06.527Z,18.85
2023-04-18T19:43:38.371Z,19.10
2023-04-18T19:46:06.882Z,21.52
2023-04-18T19:48:35.437Z,14.77
2023-04-18T19:51:04.877Z,15.48
2023-04-18T19:53:35.533Z,15.52
2023-04-18T19:58:35.743Z,15.30
2023-04-18T20:01:06.006Z,20.63
2023-04-18T20:03:35.088Z,14.18
2023-04-18T20:06:05.565Z,24.15
2023-04-18T20:08:35.970Z,17.70
2023-04-18T20:11:05.226Z,15.68
2023-04-18T20:13:34.715Z,22.70
2023-04-18T20:16:03.783Z,15.10
2023-04-18T20:18:33.947Z,16.58
2023-04-18T20:21:02.363Z,25.00
2023-04-18T20:23:31.062Z,29.02
2023-04-18T20:26:00.973Z,19.98
2023-04-18T20:28:32.185Z,16.60
2023-04-18T20:31:02.452Z,18.35
2023-04-18T20:33:31.258Z,23.88
2023-04-18T20:36:17.172Z,18.65
2023-04-18T20:38:46.341Z,17.05
2023-04-18T20:41:18.024Z,19.70
2023-04-18T20:43:46.943Z,21.73
2023-04-18T20:46:16.206Z,21.42
2023-04-18T20:48:44.924Z,112.30
2023-04-18T20:51:13.335Z,67.63
2023-04-18T20:53:41.965Z,21.67
2023-04-18T20:56:10.379Z,26.55
2023-04-18T20:58:40.613Z,25.63
2023-04-18T21:01:09.098Z,16.92
2023-04-18T21:03:37.798Z,20.27
2023-04-18T21:06:06.577Z,19.15
2023-04-18T21:08:37.932Z,17.80
2023-04-18T21:11:06.681Z,18.10
2023-04-18T21:13:37.361Z,22.20
2023-04-18T21:16:10.178Z,20.65
2023-04-18T21:18:41.288Z,20.25
2023-04-18T21:21:10.090Z,25.75
2023-04-18T21:23:43.164Z,26.02
2023-04-18T21:26:13.325Z,20.05
2023-04-18T21:28:57.470Z,17.55
2023-04-18T21:31:28.101Z,23.80
2023-04-18T21:33:56.854Z,18.73
2023-04-18T21:36:26.553Z,20.35
2023-04-18T21:38:55.459Z,22.27
2023-04-18T21:41:24.632Z,25.83
2023-04-18T21:43:53.710Z,23.85
2023-04-18T21:46:22.557Z,22.75
2023-04-18T21:48:52.388Z,18.83
2023-04-18T21:51:20.957Z,21.92
2023-04-18T21:53:49.573Z,18.90
2023-04-18T21:56:18.493Z,22.50
2023-04-18T21:58:47.640Z,21.92
2023-04-18T22:01:16.528Z,19.38
2023-04-18T22:03:45.217Z,21.52
2023-04-18T22:06:15.186Z,21.85
2023-04-18T22:08:43.765Z,21.48
2023-04-18T22:11:13.444Z,24.42
2023-04-18T22:13:44.927Z,20.42
2023-04-18T22:16:15.667Z,20.90
2023-04-18T22:18:44.269Z,21.98
2023-04-18T22:21:12.863Z,24.23
2023-04-18T22:23:42.830Z,21.45
2023-04-18T22:26:11.543Z,17.48
2023-04-18T22:28:40.197Z,17.58
2023-04-18T22:31:09.037Z,23.83
2023-04-18T22:33:37.748Z,17.75
2023-04-18T22:36:06.613Z,18.27
2023-04-18T22:38:35.213Z,20.58
2023-04-18T22:41:05.308Z,19.05
2023-04-18T22:43:34.339Z,21.88
2023-04-18T22:46:02.927Z,22.15
2023-04-18T22:48:31.458Z,17.63
2023-04-18T22:51:01.752Z,16.65
2023-04-18T22:53:30.245Z,16.67
2023-04-18T22:55:58.721Z,21.48
2023-04-18T22:58:28.572Z,17.17
2023-04-18T23:00:56.975Z,15.70
2023-04-18T23:03:25.450Z,16.65
2023-04-18T23:05:54.106Z,22.00
2023-04-18T23:08:22.586Z,16.70
2023-04-18T23:10:51.078Z,16.90
2023-04-18T23:13:19.448Z,17.73
2023-04-18T23:15:49.197Z,17.90
2023-04-18T23:18:17.615Z,11.57
2023-04-18T23:20:46.148Z,16.23
2023-04-18T23:23:14.533Z,15.43
2023-04-18T23:25:45.213Z,16.30
2023-04-18T23:28:14.560Z,21.92
2023-04-18T23:30:42.971Z,16.58
2023-04-18T23:33:13.216Z,16.55
2023-04-18T23:35:41.644Z,16.95
2023-04-18T23:38:10.208Z,18.30
2023-04-18T23:40:38.768Z,17.52
2023-04-18T23:43:07.160Z,13.93
2023-04-18T23:45:36.520Z,15.13
2023-04-18T23:48:05.034Z,13.73
2023-04-18T23:50:34.786Z,13.88
2023-04-18T23:53:03.196Z,17.67
2023-04-18T23:55:31.690Z,13.77
2023-04-18T23:58:00.570Z,11.40
